createdAt,value
2024-02-15T00:00:00.648Z,99.90
2024-02-15T00:02:27.718Z,99.90
2024-02-15T00:04:54.682Z,99.90
2024-02-15T00:07:23.991Z,99.90
2024-02-15T00:09:51.206Z,99.90
2024-02-15T00:12:18.206Z,99.90
2024-02-15T00:14:45.211Z,99.90
2024-02-15T00:17:13.018Z,99.90
2024-02-15T00:19:42.871Z,99.90
2024-02-15T00:22:10.804Z,99.90
2024-02-15T00:24:39.321Z,99.90
2024-02-15T00:27:06.827Z,99.90
2024-02-15T00:29:35.542Z,99.90
2024-02-15T00:32:04.780Z,99.90
2024-02-15T00:34:32.418Z,99.90
2024-02-15T00:36:59.876Z,99.90
2024-02-15T00:39:26.772Z,99.90
2024-02-15T00:41:53.773Z,99.90
2024-02-15T00:44:21.337Z,99.90
2024-02-15T00:46:49.151Z,99.90
2024-02-15T00:49:16.749Z,99.90
2024-02-15T00:51:43.874Z,99.90
2024-02-15T00:54:10.750Z,99.90
2024-02-15T00:56:37.762Z,99.90
2024-02-15T00:59:06.404Z,99.90
2024-02-15T01:01:33.459Z,99.90
2024-02-15T01:04:00.361Z,99.90
2024-02-15T01:06:27.417Z,99.90
2024-02-15T01:08:54.456Z,99.90
2024-02-15T01:11:21.978Z,99.90
2024-02-15T01:13:48.914Z,99.90
2024-02-15T01:16:16.688Z,99.90
2024-02-15T01:18:43.986Z,99.90
2024-02-15T01:21:12.501Z,99.90
2024-02-15T01:23:40.047Z,99.90
2024-02-15T01:26:07.110Z,99.90
2024-02-15T01:28:34.043Z,99.90
2024-02-15T01:31:01.122Z,99.90
2024-02-15T01:33:28.332Z,99.90
2024-02-15T01:35:55.892Z,99.90
2024-02-15T01:38:23.142Z,99.90
2024-02-15T01:40:50.226Z,99.90
2024-02-15T01:43:17.196Z,99.90
2024-02-15T01:45:44.241Z,99.90
2024-02-15T01:48:12.229Z,99.90
2024-02-15T01:50:40.049Z,99.90
2024-02-15T01:53:11.375Z,99.90
2024-02-15T01:55:40.983Z,99.90
2024-02-15T01:58:08.329Z,99.90
2024-02-15T02:00:37.651Z,99.90
2024-02-15T02:03:06.177Z,99.90
2024-02-15T02:05:33.267Z,99.90
2024-02-15T02:08:02.747Z,99.90
2024-02-15T02:10:33.812Z,99.90
2024-02-15T02:13:05.128Z,99.90
2024-02-15T02:15:35.767Z,99.90
2024-02-15T02:18:03.118Z,99.90
2024-02-15T02:20:30.407Z,99.90
2024-02-15T02:23:15.240Z,99.90
2024-02-15T02:25:45.535Z,99.90
2024-02-15T02:28:13.248Z,99.90
2024-02-15T02:30:42.862Z,99.90
2024-02-15T02:33:20.473Z,99.90
2024-02-15T02:35:49.263Z,99.90
2024-02-15T02:38:16.751Z,99.90
2024-02-15T02:40:43.772Z,99.90
2024-02-15T02:43:11.182Z,99.90
2024-02-15T02:45:38.572Z,99.90
2024-02-15T02:48:06.540Z,99.90
2024-02-15T02:50:33.860Z,99.90
2024-02-15T02:53:01.175Z,99.90
2024-02-15T02:55:31.779Z,99.90
2024-02-15T02:57:58.787Z,99.90
2024-02-15T03:00:25.761Z,99.90
2024-02-15T03:02:52.830Z,99.90
2024-02-15T03:05:22.352Z,99.90
2024-02-15T03:07:49.880Z,99.90
2024-02-15T03:10:16.877Z,99.90
2024-02-15T03:12:49.028Z,99.90
2024-02-15T03:15:18.061Z,99.90
2024-02-15T03:17:48.674Z,99.90
2024-02-15T03:20:22.394Z,99.90
2024-02-15T03:22:57.665Z,99.90
2024-02-15T03:25:26.190Z,99.90
2024-02-15T03:27:54.900Z,99.90
2024-02-15T03:30:23.512Z,99.90
2024-02-15T03:32:52.240Z,99.90
2024-02-15T03:35:25.223Z,99.90
2024-02-15T03:37:53.257Z,99.90
2024-02-15T03:40:21.780Z,99.90
2024-02-15T03:42:49.233Z,99.90
2024-02-15T03:45:17.147Z,99.90
2024-02-15T03:47:44.392Z,99.90
2024-02-15T03:50:11.846Z,99.90
2024-02-15T03:52:39.634Z,99.90
2024-02-15T03:55:08.678Z,99.90
2024-02-15T03:57:36.778Z,99.90
2024-02-15T04:00:05.550Z,99.90
2024-02-15T04:02:32.547Z,99.90
2024-02-15T04:04:59.431Z,99.90
2024-02-15T04:07:28.034Z,99.90
2024-02-15T04:09:55.386Z,99.90
2024-02-15T04:12:22.815Z,99.90
2024-02-15T04:14:50.298Z,99.90
2024-02-15T04:17:18.210Z,99.90
2024-02-15T04:19:48.933Z,99.90
2024-02-15T04:22:17.369Z,99.90
2024-02-15T04:24:46.489Z,99.90
2024-02-15T04:27:15.217Z,99.90
2024-02-15T04:29:45.280Z,99.90
2024-02-15T04:32:14.327Z,99.90
2024-02-15T04:34:41.818Z,99.90
2024-02-15T04:37:09.193Z,99.90
2024-02-15T04:39:37.256Z,99.90
2024-02-15T04:42:10.979Z,99.90
2024-02-15T04:44:41.298Z,99.90
2024-02-15T04:47:09.751Z,99.90
2024-02-15T04:49:39.243Z,99.90
2024-02-15T04:52:07.741Z,99.90
2024-02-15T04:54:34.780Z,99.90
2024-02-15T04:57:02.173Z,99.90
2024-02-15T04:59:30.377Z,99.90
2024-02-15T05:01:59.252Z,99.90
2024-02-15T05:04:26.363Z,99.90
2024-02-15T05:06:54.489Z,99.90
2024-02-15T05:09:21.586Z,99.90
2024-02-15T05:11:49.626Z,99.90
2024-02-15T05:14:20.818Z,99.90
2024-02-15T05:16:49.737Z,99.90
2024-02-15T05:19:20.167Z,99.90
2024-02-15T05:21:47.752Z,99.90
2024-02-15T05:24:16.694Z,99.90
2024-02-15T05:26:49.969Z,99.90
2024-02-15T05:29:18.055Z,99.90
2024-02-15T05:31:45.118Z,99.90
2024-02-15T05:34:13.316Z,99.90
2024-02-15T05:36:40.735Z,99.90
2024-02-15T05:39:08.834Z,99.90
2024-02-15T05:41:36.585Z,99.90
2024-02-15T05:44:07.965Z,99.90
2024-02-15T05:46:38.721Z,99.90
2024-02-15T05:49:06.536Z,99.90
2024-02-15T05:51:35.623Z,99.90
2024-02-15T05:54:03.560Z,99.90
2024-02-15T05:56:30.618Z,99.90
2024-02-15T05:58:58.276Z,99.90
2024-02-15T06:01:25.574Z,99.90
2024-02-15T06:03:56.236Z,99.90
2024-02-15T06:06:24.398Z,99.90
2024-02-15T06:08:51.598Z,99.90
2024-02-15T06:11:22.071Z,99.90
2024-02-15T06:13:49.442Z,99.90
2024-02-15T06:16:16.362Z,99.90
2024-02-15T06:18:43.497Z,99.90
2024-02-15T06:21:10.645Z,99.90
2024-02-15T06:23:38.553Z,99.90
2024-02-15T06:26:05.702Z,99.90
2024-02-15T06:28:51.036Z,99.90
2024-02-15T06:31:36.500Z,99.90
2024-02-15T06:34:22.173Z,99.90
2024-02-15T06:37:10.073Z,99.90
2024-02-15T06:39:43.100Z,99.90
2024-02-15T06:42:19.548Z,99.90
2024-02-15T06:44:48.270Z,99.90
2024-02-15T06:47:18.594Z,99.90
2024-02-15T06:49:47.606Z,99.90
2024-02-15T06:52:15.061Z,99.90
2024-02-15T06:54:43.484Z,99.90
2024-02-15T06:57:11.334Z,99.90
2024-02-15T06:59:40.566Z,99.90
2024-02-15T07:02:09.468Z,99.90
2024-02-15T07:04:38.216Z,99.90
2024-02-15T07:07:05.903Z,99.90
2024-02-15T07:09:33.667Z,99.90
2024-02-15T07:12:00.957Z,99.90
2024-02-15T07:14:30.785Z,99.90
2024-02-15T07:17:00.400Z,99.90
2024-02-15T07:19:28.819Z,99.90
2024-02-15T07:21:57.934Z,99.90
2024-02-15T07:24:28.107Z,99.90
2024-02-15T07:26:56.830Z,99.90
2024-02-15T07:29:24.633Z,99.90
2024-02-15T07:31:51.838Z,99.90
2024-02-15T07:34:19.091Z,99.90
2024-02-15T07:36:46.682Z,99.90
2024-02-15T07:39:24.198Z,99.90
2024-02-15T07:41:54.157Z,99.90
2024-02-15T07:44:21.386Z,99.90
2024-02-15T07:46:48.651Z,99.90
2024-02-15T07:49:15.925Z,99.90
2024-02-15T07:51:42.967Z,99.90
2024-02-15T07:54:09.913Z,99.90
2024-02-15T07:56:36.950Z,99.90
2024-02-15T07:59:04.147Z,99.90
2024-02-15T08:01:32.624Z,99.90
2024-02-15T08:03:59.654Z,99.90
2024-02-15T08:06:29.279Z,99.90
2024-02-15T08:08:56.585Z,99.90
2024-02-15T08:11:24.671Z,99.90
2024-02-15T08:13:59.977Z,99.90
2024-02-15T08:16:28.585Z,99.90
2024-02-15T08:18:56.711Z,99.90
2024-02-15T08:21:37.299Z,99.90
2024-02-15T08:24:06.845Z,99.90
2024-02-15T08:26:37.289Z,99.90
2024-02-15T08:29:04.435Z,99.90
2024-02-15T08:31:32.881Z,99.90
2024-02-15T08:34:00.015Z,99.90
2024-02-15T08:36:27.204Z,99.90
2024-02-15T08:38:55.150Z,99.90
2024-02-15T08:41:24.523Z,99.90
2024-02-15T08:43:51.413Z,99.90
2024-02-15T08:46:18.296Z,99.90
2024-02-15T08:48:45.944Z,99.90
2024-02-15T08:51:13.263Z,99.90
2024-02-15T08:53:40.342Z,99.90
2024-02-15T08:56:07.537Z,99.90
2024-02-15T08:58:34.459Z,99.90
2024-02-15T09:01:01.683Z,99.90
2024-02-15T09:03:28.767Z,99.90
2024-02-15T09:05:55.840Z,99.90
2024-02-15T09:08:23.470Z,99.90
2024-02-15T09:10:54.936Z,99.90
2024-02-15T09:13:21.889Z,99.90
2024-02-15T09:15:48.746Z,99.90
2024-02-15T09:18:16.168Z,99.90
2024-02-15T09:20:46.064Z,99.90
2024-02-15T09:23:13.439Z,99.90
2024-02-15T09:25:40.373Z,99.90
2024-02-15T09:28:07.690Z,99.90
2024-02-15T09:30:36.440Z,99.90
2024-02-15T09:33:06.174Z,99.90
2024-02-15T09:35:33.611Z,99.90
2024-02-15T09:38:00.667Z,99.90
2024-02-15T09:40:30.318Z,99.90
2024-02-15T09:42:57.467Z,99.90
2024-02-15T09:45:26.150Z,99.90
2024-02-15T09:47:54.834Z,99.90
2024-02-15T09:50:25.537Z,99.90
2024-02-15T09:52:57.639Z,99.90
2024-02-15T09:55:25.690Z,99.90
2024-02-15T09:57:52.778Z,99.90
2024-02-15T10:00:20.316Z,99.90
2024-02-15T10:02:57.055Z,99.90
2024-02-15T10:05:24.546Z,99.90
2024-02-15T10:07:51.603Z,99.90
2024-02-15T10:10:24.310Z,99.90
2024-02-15T10:12:57.098Z,99.90
2024-02-15T10:15:41.470Z,99.90
2024-02-15T10:18:11.936Z,99.90
2024-02-15T10:20:46.186Z,99.90
2024-02-15T10:23:18.656Z,99.90
2024-02-15T10:25:46.342Z,99.90
2024-02-15T10:28:16.917Z,99.90
2024-02-15T10:30:46.979Z,99.90
2024-02-15T10:33:31.476Z,99.90
2024-02-15T10:36:10.245Z,99.90
2024-02-15T10:38:37.680Z,99.90
2024-02-15T10:41:07.250Z,99.90
2024-02-15T10:43:41.249Z,99.90
2024-02-15T10:46:11.832Z,99.90
2024-02-15T10:48:40.053Z,99.90
2024-02-15T10:51:13.288Z,99.90
2024-02-15T10:53:51.961Z,99.90
2024-02-15T10:56:24.642Z,99.90
2024-02-15T10:59:21.351Z,99.90
2024-02-15T11:01:54.195Z,99.90
2024-02-15T11:04:26.697Z,99.90
2024-02-15T11:06:56.836Z,99.90
2024-02-15T11:09:24.794Z,99.90
2024-02-15T11:11:53.972Z,99.90
2024-02-15T11:14:31.428Z,99.90
2024-02-15T11:17:03.608Z,99.90
2024-02-15T11:19:36.288Z,99.90
2024-02-15T11:22:16.686Z,99.90
2024-02-15T11:24:53.336Z,99.90
2024-02-15T11:27:32.770Z,99.90
2024-02-15T11:30:22.468Z,99.90
2024-02-15T11:32:51.513Z,99.90
2024-02-15T11:35:21.708Z,99.90
2024-02-15T11:37:51.808Z,99.90
2024-02-15T11:40:26.623Z,99.90
2024-02-15T11:42:55.544Z,99.90
2024-02-15T11:45:23.100Z,99.90
2024-02-15T11:47:54.023Z,99.40
2024-02-15T11:50:24.323Z,99.50
2024-02-15T11:52:52.982Z,99.70
2024-02-15T11:55:23.555Z,98.60
2024-02-15T11:58:10.899Z,99.80
2024-02-15T12:00:57.703Z,99.40
2024-02-15T12:03:52.803Z,99.90
2024-02-15T12:06:48.138Z,99.90
2024-02-15T12:09:39.129Z,99.90
2024-02-15T12:12:25.522Z,99.90
2024-02-15T12:15:23.041Z,99.90
2024-02-15T12:18:08.846Z,98.70
2024-02-15T12:20:36.343Z,98.70
2024-02-15T12:23:03.689Z,97.80
2024-02-15T12:25:34.281Z,97.60
2024-02-15T12:28:05.504Z,97.60
2024-02-15T12:30:38.099Z,97.70
2024-02-15T12:33:14.310Z,97.30
2024-02-15T12:35:43.301Z,97.10
2024-02-15T12:38:10.584Z,96.90
2024-02-15T12:40:41.834Z,97.40
2024-02-15T12:43:10.669Z,96.50
2024-02-15T12:45:40.401Z,95.80
2024-02-15T12:48:09.395Z,96.10
2024-02-15T12:50:36.684Z,95.70
2024-02-15T12:53:04.124Z,94.60
2024-02-15T12:55:36.251Z,94.30
2024-02-15T12:58:09.959Z,93.60
2024-02-15T13:00:41.119Z,93.00
2024-02-15T13:03:11.264Z,92.50
2024-02-15T13:05:40.209Z,91.90
2024-02-15T13:08:14.337Z,91.70
2024-02-15T13:10:41.725Z,91.10
2024-02-15T13:13:10.812Z,91.30
2024-02-15T13:15:38.478Z,91.10
2024-02-15T13:18:06.932Z,88.70
2024-02-15T13:20:35.884Z,87.70
2024-02-15T13:23:24.074Z,87.00
2024-02-15T13:25:53.422Z,86.40
2024-02-15T13:28:20.767Z,84.10
2024-02-15T13:30:50.488Z,82.50
2024-02-15T13:33:18.090Z,83.80
2024-02-15T13:35:45.529Z,86.00
2024-02-15T13:38:16.035Z,84.90
2024-02-15T13:40:43.627Z,83.50
2024-02-15T13:43:10.695Z,85.30
2024-02-15T13:45:42.466Z,84.50
2024-02-15T13:48:10.814Z,81.90
2024-02-15T13:50:40.255Z,82.20
2024-02-15T13:53:07.991Z,81.10
2024-02-15T13:55:36.773Z,81.60
2024-02-15T13:58:03.929Z,83.60
2024-02-15T14:00:31.417Z,83.50
2024-02-15T14:03:00.140Z,82.70
2024-02-15T14:05:30.177Z,83.50
2024-02-15T14:08:03.231Z,83.80
2024-02-15T14:10:36.249Z,83.20
2024-02-15T14:13:09.927Z,83.80
2024-02-15T14:15:40.740Z,84.60
2024-02-15T14:18:14.849Z,85.20
2024-02-15T14:20:43.997Z,86.90
2024-02-15T14:23:15.063Z,86.00
2024-02-15T14:25:46.429Z,86.00
2024-02-15T14:28:15.237Z,84.10
2024-02-15T14:31:00.695Z,84.20
2024-02-15T14:35:57.795Z,84.30
2024-02-15T14:38:25.398Z,85.80
2024-02-15T14:40:55.113Z,84.30
2024-02-15T14:43:26.704Z,84.10
2024-02-15T14:45:55.119Z,84.80
2024-02-15T14:48:22.595Z,84.30
2024-02-15T14:50:52.207Z,83.20
2024-02-15T14:53:20.046Z,82.60
2024-02-15T14:55:50.598Z,80.60
2024-02-15T14:58:18.769Z,81.50
2024-02-15T15:00:48.235Z,79.90
2024-02-15T15:03:17.355Z,80.50
2024-02-15T15:06:03.984Z,81.20
2024-02-15T15:08:49.965Z,82.50
2024-02-15T15:11:35.466Z,86.70
2024-02-15T15:14:05.636Z,90.10
2024-02-15T15:16:32.879Z,91.60
2024-02-15T15:19:00.109Z,92.50
2024-02-15T15:21:29.031Z,93.30
2024-02-15T15:23:57.259Z,93.80
2024-02-15T15:26:24.504Z,94.30
2024-02-15T15:28:51.962Z,94.70
2024-02-15T15:31:21.463Z,95.50
2024-02-15T15:33:53.726Z,96.10
2024-02-15T15:36:22.515Z,96.10
2024-02-15T15:38:49.677Z,96.40
2024-02-15T15:41:17.201Z,96.40
2024-02-15T15:43:44.337Z,96.90
2024-02-15T15:46:17.932Z,97.30
2024-02-15T15:48:45.314Z,97.60
2024-02-15T15:51:13.741Z,97.70
2024-02-15T15:53:41.578Z,98.30
2024-02-15T15:56:08.978Z,99.20
2024-02-15T15:58:36.156Z,99.90
2024-02-15T16:01:04.856Z,99.90
2024-02-15T16:03:32.575Z,99.90
2024-02-15T16:05:59.716Z,99.90
2024-02-15T16:08:27.959Z,99.90
2024-02-15T16:10:55.363Z,99.90
2024-02-15T16:13:23.905Z,99.90
2024-02-15T16:15:55.188Z,99.90
2024-02-15T16:18:22.750Z,99.90
2024-02-15T16:20:52.806Z,99.90
2024-02-15T16:23:21.702Z,99.90
2024-02-15T16:25:48.693Z,99.90
2024-02-15T16:28:16.045Z,99.90
2024-02-15T16:30:43.812Z,99.90
2024-02-15T16:33:10.998Z,99.90
2024-02-15T16:35:37.998Z,99.90
2024-02-15T16:38:06.324Z,99.90
2024-02-15T16:40:33.440Z,99.90
2024-02-15T16:43:01.841Z,99.90
2024-02-15T16:45:28.965Z,99.90
2024-02-15T16:48:01.834Z,99.90
2024-02-15T16:50:29.196Z,99.90
2024-02-15T16:52:56.332Z,99.90
2024-02-15T16:55:32.240Z,99.90
2024-02-15T16:58:09.066Z,99.90
2024-02-15T17:00:36.380Z,99.90
2024-02-15T17:03:04.006Z,99.90
2024-02-15T17:05:31.074Z,99.90
2024-02-15T17:07:58.321Z,99.90
2024-02-15T17:10:26.186Z,99.90
2024-02-15T17:12:53.916Z,99.90
2024-02-15T17:15:27.830Z,99.90
2024-02-15T17:17:56.159Z,99.90
2024-02-15T17:20:24.776Z,99.90
2024-02-15T17:22:53.348Z,99.90
2024-02-15T17:25:26.470Z,99.90
2024-02-15T17:28:00.002Z,99.90
2024-02-15T17:30:27.242Z,99.90
2024-02-15T17:32:54.565Z,99.90
2024-02-15T17:35:22.472Z,99.90
2024-02-15T17:37:49.781Z,99.90
2024-02-15T17:40:17.809Z,99.90
2024-02-15T17:42:44.954Z,99.90
2024-02-15T17:45:13.286Z,99.90
2024-02-15T17:47:42.734Z,99.90
2024-02-15T17:50:12.662Z,99.90
2024-02-15T17:52:40.042Z,99.90
2024-02-15T17:55:10.287Z,99.90
2024-02-15T17:57:39.287Z,99.90
2024-02-15T18:00:16.058Z,99.90
2024-02-15T18:02:51.088Z,99.90
2024-02-15T18:05:20.379Z,99.90
2024-02-15T18:07:48.434Z,99.90
2024-02-15T18:10:18.257Z,99.90
2024-02-15T18:12:45.379Z,99.90
2024-02-15T18:15:26.033Z,99.90
2024-02-15T18:17:56.534Z,99.90
2024-02-15T18:20:24.461Z,99.90
2024-02-15T18:22:53.134Z,99.90
2024-02-15T18:25:20.098Z,99.90
2024-02-15T18:27:47.788Z,99.90
2024-02-15T18:30:19.338Z,99.90
2024-02-15T18:32:47.391Z,99.90
2024-02-15T18:35:17.259Z,99.90
2024-02-15T18:37:45.958Z,99.90
2024-02-15T18:40:22.267Z,99.90
2024-02-15T18:42:53.252Z,99.90
2024-02-15T18:45:20.756Z,99.90
2024-02-15T18:47:48.059Z,99.90
2024-02-15T18:50:17.045Z,99.90
2024-02-15T18:52:44.463Z,99.90
2024-02-15T18:55:13.320Z,99.90
2024-02-15T18:57:40.401Z,99.90
2024-02-15T19:00:16.390Z,99.90
2024-02-15T19:02:53.155Z,99.90
2024-02-15T19:05:24.134Z,99.90
2024-02-15T19:07:52.308Z,99.90
2024-02-15T19:10:21.081Z,99.90
2024-02-15T19:12:48.787Z,99.90
2024-02-15T19:15:16.155Z,99.90
2024-02-15T19:17:43.413Z,99.90
2024-02-15T19:20:11.404Z,99.90
2024-02-15T19:22:39.316Z,99.90
2024-02-15T19:25:07.371Z,99.90
2024-02-15T19:27:37.430Z,99.90
2024-02-15T19:30:04.875Z,99.90
2024-02-15T19:32:31.867Z,99.90
2024-02-15T19:34:58.963Z,99.90
2024-02-15T19:37:31.221Z,99.90
2024-02-15T19:39:58.130Z,99.90
2024-02-15T19:42:25.117Z,99.90
2024-02-15T19:44:52.345Z,99.90
2024-02-15T19:47:21.491Z,99.90
2024-02-15T19:49:48.437Z,99.90
2024-02-15T19:52:16.864Z,99.90
2024-02-15T19:54:43.786Z,99.90
2024-02-15T19:57:10.791Z,99.90
2024-02-15T19:59:37.804Z,99.90
2024-02-15T20:02:04.924Z,99.90
2024-02-15T20:04:36.678Z,99.90
2024-02-15T20:07:04.792Z,99.90
2024-02-15T20:09:40.531Z,99.90
2024-02-15T20:12:14.846Z,99.90
2024-02-15T20:14:42.358Z,99.90
2024-02-15T20:17:11.589Z,99.90
2024-02-15T20:19:39.464Z,99.90
2024-02-15T20:22:08.309Z,99.90
2024-02-15T20:24:38.852Z,99.90
2024-02-15T20:27:06.467Z,99.90
2024-02-15T20:29:35.269Z,99.90
2024-02-15T20:32:02.307Z,99.90
2024-02-15T20:34:29.501Z,99.90
2024-02-15T20:36:58.928Z,99.90
2024-02-15T20:39:27.259Z,99.90
2024-02-15T20:41:54.438Z,99.90
2024-02-15T20:44:21.481Z,99.90
2024-02-15T20:46:48.492Z,99.90
2024-02-15T20:49:16.196Z,99.90
2024-02-15T20:51:43.414Z,99.90
2024-02-15T20:54:10.350Z,99.90
2024-02-15T20:56:38.159Z,99.90
2024-02-15T20:59:08.849Z,99.90
2024-02-15T21:01:38.158Z,99.90
2024-02-15T21:04:06.703Z,99.90
2024-02-15T21:06:38.603Z,99.90
2024-02-15T21:09:12.446Z,99.90
2024-02-15T21:11:40.251Z,99.90
2024-02-15T21:14:08.553Z,99.90
2024-02-15T21:16:35.551Z,99.90
2024-02-15T21:19:09.777Z,99.90
2024-02-15T21:21:37.681Z,99.90
2024-02-15T21:24:06.942Z,99.90
2024-02-15T21:26:34.473Z,99.90
2024-02-15T21:29:03.527Z,99.90
2024-02-15T21:31:30.417Z,99.90
2024-02-15T21:33:58.643Z,99.90
2024-02-15T21:36:25.746Z,99.90
2024-02-15T21:38:54.441Z,99.90
2024-02-15T21:41:22.335Z,99.90
2024-02-15T21:43:49.434Z,99.90
2024-02-15T21:46:16.425Z,99.90
2024-02-15T21:48:44.867Z,99.90
2024-02-15T21:51:12.163Z,99.90
2024-02-15T21:53:41.885Z,99.90
2024-02-15T21:56:16.140Z,99.90
2024-02-15T21:58:43.002Z,99.90
2024-02-15T22:01:10.697Z,99.90
2024-02-15T22:03:37.622Z,99.90
2024-02-15T22:06:05.081Z,99.90
2024-02-15T22:08:31.994Z,99.90
2024-02-15T22:10:59.033Z,99.90
2024-02-15T22:13:25.879Z,99.90
2024-02-15T22:15:52.702Z,99.90
2024-02-15T22:18:19.662Z,99.90
2024-02-15T22:20:47.653Z,99.90
2024-02-15T22:23:14.537Z,99.90
2024-02-15T22:25:41.444Z,99.90
2024-02-15T22:28:08.416Z,99.90
2024-02-15T22:30:35.693Z,99.90
2024-02-15T22:33:02.809Z,99.90
2024-02-15T22:35:29.758Z,99.90
2024-02-15T22:37:56.588Z,99.90
2024-02-15T22:40:23.401Z,99.90
2024-02-15T22:42:50.250Z,99.90
2024-02-15T22:45:17.682Z,99.90
2024-02-15T22:47:46.243Z,99.90
2024-02-15T22:50:13.627Z,99.90
2024-02-15T22:52:40.802Z,99.90
2024-02-15T22:55:08.151Z,99.90
2024-02-15T22:57:35.299Z,99.90
2024-02-15T23:00:02.522Z,99.90
2024-02-15T23:02:29.611Z,99.90
2024-02-15T23:04:56.714Z,99.90
2024-02-15T23:07:24.730Z,99.90
2024-02-15T23:09:51.971Z,99.90
2024-02-15T23:12:19.009Z,99.90
2024-02-15T23:14:46.058Z,99.90
2024-02-15T23:17:13.161Z,99.90
2024-02-15T23:19:40.609Z,99.90
2024-02-15T23:22:11.447Z,99.90
2024-02-15T23:24:38.987Z,99.90
2024-02-15T23:27:06.713Z,99.90
2024-02-15T23:29:33.932Z,99.90
2024-02-15T23:32:00.807Z,99.90
2024-02-15T23:34:27.859Z,99.90
2024-02-15T23:37:13.147Z,99.90
2024-02-15T23:39:58.532Z,99.90
2024-02-15T23:42:26.472Z,99.90
2024-02-15T23:44:54.406Z,99.90
2024-02-15T23:47:21.319Z,99.90
2024-02-15T23:49:49.091Z,99.90
2024-02-15T23:52:16.061Z,99.90
2024-02-15T23:54:42.950Z,99.90
2024-02-15T23:57:09.969Z,99.90
2024-02-15T23:59:36.927Z,99.90
